Athlestan, Iowa
Current Conditions -  °F | °C
As of 7:35 AM on Thursday 18 Dec 2014 (Local Time) from KCSQ Reporting Station
Light Snow Light Snow  
Wind Chill: -11°   Ceiling: 3300
Heat Index: -5°   Visibility: 2.5mi
Dew Point: -5°   Wind: 9mph
Humidity: 100%   Direction: 80°E
Pressure: 30.24"   Gusts: NA
Location:  40.6485°N, 94.5286°W
Report Text: KCSQ 181335Z AUTO 08008KT 2 1/2SM -SN FEW005 SCT025 OVC033 M05/M05 A3024 RMK AO2
Loading
Personal Weather Stations






























Interactive Weather Map New forecast layout! Learn more

10-Day Weather Forecast

Advertisements
Track Severe Weather on mobile